sensor_id;sensor_type;location;lat;lon;timestamp;P1;durP1;ratioP1;P2;durP2;ratioP2
80241;SDS011;69556;45.004;7.532;2023-07-20T00:01:05;19.17;;;10.17;;
80241;SDS011;69556;45.004;7.532;2023-07-20T00:03:30;15.30;;;9.60;;
80241;SDS011;69556;45.004;7.532;2023-07-20T00:05:56;24.00;;;10.73;;
80241;SDS011;69556;45.004;7.532;2023-07-20T00:08:21;17.77;;;10.20;;
80241;SDS011;69556;45.004;7.532;2023-07-20T00:10:47;17.98;;;10.35;;
80241;SDS011;69556;45.004;7.532;2023-07-20T00:13:12;16.45;;;10.88;;
80241;SDS011;69556;45.004;7.532;2023-07-20T00:15:38;23.02;;;10.73;;
80241;SDS011;69556;45.004;7.532;2023-07-20T00:18:04;22.17;;;11.80;;
80241;SDS011;69556;45.004;7.532;2023-07-20T00:20:30;18.98;;;11.20;;
80241;SDS011;69556;45.004;7.532;2023-07-20T00:22:55;22.00;;;9.95;;
80241;SDS011;69556;45.004;7.532;2023-07-20T00:25:22;18.70;;;10.98;;
80241;SDS011;69556;45.004;7.532;2023-07-20T00:27:48;21.65;;;11.43;;
80241;SDS011;69556;45.004;7.532;2023-07-20T00:30:13;19.42;;;10.95;;
80241;SDS011;69556;45.004;7.532;2023-07-20T00:32:39;20.15;;;10.73;;
80241;SDS011;69556;45.004;7.532;2023-07-20T00:35:04;22.17;;;11.32;;
80241;SDS011;69556;45.004;7.532;2023-07-20T00:37:30;17.95;;;10.80;;
80241;SDS011;69556;45.004;7.532;2023-07-20T00:39:55;17.33;;;10.88;;
80241;SDS011;69556;45.004;7.532;2023-07-20T00:42:20;15.02;;;10.43;;
80241;SDS011;69556;45.004;7.532;2023-07-20T00:44:46;24.42;;;11.93;;
80241;SDS011;69556;45.004;7.532;2023-07-20T00:47:12;21.57;;;11.60;;
80241;SDS011;69556;45.004;7.532;2023-07-20T00:49:37;19.85;;;11.05;;
80241;SDS011;69556;45.004;7.532;2023-07-20T00:52:03;21.38;;;10.45;;
80241;SDS011;69556;45.004;7.532;2023-07-20T00:54:32;14.68;;;10.27;;
80241;SDS011;69556;45.004;7.532;2023-07-20T00:56:58;20.92;;;10.73;;
80241;SDS011;69556;45.004;7.532;2023-07-20T00:59:25;15.98;;;11.50;;
80241;SDS011;69556;45.004;7.532;2023-07-20T01:01:51;17.33;;;11.55;;
80241;SDS011;69556;45.004;7.532;2023-07-20T01:04:16;21.60;;;11.48;;
80241;SDS011;69556;45.004;7.532;2023-07-20T01:06:45;20.58;;;11.40;;
80241;SDS011;69556;45.004;7.532;2023-07-20T01:09:26;22.80;;;10.70;;
80241;SDS011;69556;45.004;7.532;2023-07-20T01:12:07;22.35;;;11.70;;
80241;SDS011;69556;45.004;7.532;2023-07-20T01:14:36;20.20;;;11.10;;
80241;SDS011;69556;45.004;7.532;2023-07-20T01:17:02;16.70;;;11.32;;
80241;SDS011;69556;45.004;7.532;2023-07-20T01:19:28;21.90;;;12.38;;
80241;SDS011;69556;45.004;7.532;2023-07-20T01:21:55;18.13;;;12.00;;
80241;SDS011;69556;45.004;7.532;2023-07-20T01:32:55;21.45;;;11.45;;
80241;SDS011;69556;45.004;7.532;2023-07-20T01:35:23;22.48;;;11.98;;
80241;SDS011;69556;45.004;7.532;2023-07-20T01:37:52;21.75;;;12.18;;
80241;SDS011;69556;45.004;7.532;2023-07-20T01:40:19;20.35;;;12.20;;
80241;SDS011;69556;45.004;7.532;2023-07-20T01:42:46;16.33;;;11.98;;
80241;SDS011;69556;45.004;7.532;2023-07-20T01:45:12;21.27;;;11.90;;
80241;SDS011;69556;45.004;7.532;2023-07-20T01:47:37;20.58;;;11.80;;
80241;SDS011;69556;45.004;7.532;2023-07-20T01:50:03;21.67;;;12.75;;
80241;SDS011;69556;45.004;7.532;2023-07-20T01:52:28;22.35;;;11.15;;
80241;SDS011;69556;45.004;7.532;2023-07-20T01:54:54;19.70;;;11.85;;
80241;SDS011;69556;45.004;7.532;2023-07-20T01:57:19;22.67;;;12.05;;
80241;SDS011;69556;45.004;7.532;2023-07-20T01:59:45;19.73;;;10.93;;
80241;SDS011;69556;45.004;7.532;2023-07-20T02:02:11;20.10;;;10.77;;
80241;SDS011;69556;45.004;7.532;2023-07-20T02:04:36;19.80;;;10.37;;
80241;SDS011;69556;45.004;7.532;2023-07-20T02:07:01;27.77;;;10.98;;
80241;SDS011;69556;45.004;7.532;2023-07-20T02:09:27;21.67;;;10.95;;
80241;SDS011;69556;45.004;7.532;2023-07-20T02:11:52;21.58;;;11.60;;
80241;SDS011;69556;45.004;7.532;2023-07-20T02:14:17;24.53;;;12.30;;
80241;SDS011;69556;45.004;7.532;2023-07-20T02:16:43;26.38;;;14.32;;
80241;SDS011;69556;45.004;7.532;2023-07-20T02:19:08;28.53;;;14.67;;
80241;SDS011;69556;45.004;7.532;2023-07-20T02:21:33;23.20;;;15.32;;
80241;SDS011;69556;45.004;7.532;2023-07-20T02:23:59;21.23;;;12.30;;
80241;SDS011;69556;45.004;7.532;2023-07-20T02:26:24;23.38;;;14.27;;
80241;SDS011;69556;45.004;7.532;2023-07-20T02:28:50;22.25;;;12.30;;
80241;SDS011;69556;45.004;7.532;2023-07-20T02:31:15;20.40;;;13.27;;
80241;SDS011;69556;45.004;7.532;2023-07-20T02:33:41;15.93;;;10.97;;
80241;SDS011;69556;45.004;7.532;2023-07-20T02:36:06;22.67;;;11.30;;
80241;SDS011;69556;45.004;7.532;2023-07-20T02:38:31;20.83;;;11.32;;
80241;SDS011;69556;45.004;7.532;2023-07-20T02:40:57;17.30;;;10.97;;
80241;SDS011;69556;45.004;7.532;2023-07-20T02:43:22;27.37;;;13.00;;
80241;SDS011;69556;45.004;7.532;2023-07-20T02:45:47;20.50;;;11.57;;
80241;SDS011;69556;45.004;7.532;2023-07-20T02:48:13;17.00;;;10.85;;
80241;SDS011;69556;45.004;7.532;2023-07-20T02:50:38;28.23;;;12.27;;
80241;SDS011;69556;45.004;7.532;2023-07-20T02:53:03;17.00;;;11.37;;
80241;SDS011;69556;45.004;7.532;2023-07-20T02:55:29;21.23;;;11.70;;
80241;SDS011;69556;45.004;7.532;2023-07-20T02:57:54;20.00;;;12.33;;
80241;SDS011;69556;45.004;7.532;2023-07-20T03:00:19;20.37;;;12.37;;
80241;SDS011;69556;45.004;7.532;2023-07-20T03:02:45;21.45;;;12.73;;
80241;SDS011;69556;45.004;7.532;2023-07-20T03:05:17;17.10;;;11.70;;
80241;SDS011;69556;45.004;7.532;2023-07-20T03:07:42;20.93;;;10.87;;
80241;SDS011;69556;45.004;7.532;2023-07-20T03:10:08;16.77;;;9.82;;
80241;SDS011;69556;45.004;7.532;2023-07-20T03:12:34;18.20;;;10.13;;
80241;SDS011;69556;45.004;7.532;2023-07-20T03:15:01;22.92;;;10.93;;
80241;SDS011;69556;45.004;7.532;2023-07-20T03:17:27;20.67;;;10.20;;
80241;SDS011;69556;45.004;7.532;2023-07-20T03:19:52;15.53;;;9.53;;
80241;SDS011;69556;45.004;7.532;2023-07-20T03:22:17;19.98;;;11.18;;
80241;SDS011;69556;45.004;7.532;2023-07-20T03:24:43;17.75;;;10.57;;
80241;SDS011;69556;45.004;7.532;2023-07-20T03:27:08;19.52;;;11.63;;
80241;SDS011;69556;45.004;7.532;2023-07-20T03:29:34;25.15;;;11.75;;
80241;SDS011;69556;45.004;7.532;2023-07-20T03:31:59;18.58;;;11.48;;
80241;SDS011;69556;45.004;7.532;2023-07-20T03:34:25;18.85;;;11.68;;
80241;SDS011;69556;45.004;7.532;2023-07-20T03:36:50;24.08;;;11.90;;
80241;SDS011;69556;45.004;7.532;2023-07-20T03:39:16;17.60;;;11.27;;
80241;SDS011;69556;45.004;7.532;2023-07-20T03:41:41;16.40;;;11.47;;
80241;SDS011;69556;45.004;7.532;2023-07-20T03:44:08;18.20;;;12.02;;
80241;SDS011;69556;45.004;7.532;2023-07-20T03:46:33;23.83;;;13.38;;
80241;SDS011;69556;45.004;7.532;2023-07-20T03:48:59;23.30;;;12.88;;
80241;SDS011;69556;45.004;7.532;2023-07-20T03:51:24;18.58;;;11.68;;
80241;SDS011;69556;45.004;7.532;2023-07-20T03:53:50;21.45;;;11.57;;
80241;SDS011;69556;45.004;7.532;2023-07-20T03:56:15;19.42;;;10.30;;
80241;SDS011;69556;45.004;7.532;2023-07-20T03:58:40;21.73;;;11.90;;
80241;SDS011;69556;45.004;7.532;2023-07-20T04:01:06;22.63;;;10.47;;
80241;SDS011;69556;45.004;7.532;2023-07-20T04:03:32;21.58;;;10.80;;
80241;SDS011;69556;45.004;7.532;2023-07-20T04:05:57;25.13;;;13.07;;
80241;SDS011;69556;45.004;7.532;2023-07-20T04:08:25;28.83;;;12.27;;
80241;SDS011;69556;45.004;7.532;2023-07-20T04:10:50;18.17;;;11.20;;
80241;SDS011;69556;45.004;7.532;2023-07-20T04:13:16;27.33;;;12.00;;
80241;SDS011;69556;45.004;7.532;2023-07-20T04:15:41;21.10;;;11.10;;
80241;SDS011;69556;45.004;7.532;2023-07-20T04:18:07;22.67;;;12.20;;
80241;SDS011;69556;45.004;7.532;2023-07-20T04:20:32;21.58;;;11.65;;
80241;SDS011;69556;45.004;7.532;2023-07-20T04:22:58;18.10;;;11.02;;
80241;SDS011;69556;45.004;7.532;2023-07-20T04:25:23;20.90;;;11.43;;
80241;SDS011;69556;45.004;7.532;2023-07-20T04:27:48;21.13;;;10.93;;
80241;SDS011;69556;45.004;7.532;2023-07-20T04:30:16;19.10;;;10.97;;
80241;SDS011;69556;45.004;7.532;2023-07-20T04:32:45;22.95;;;11.38;;
80241;SDS011;69556;45.004;7.532;2023-07-20T04:35:16;21.50;;;11.45;;
80241;SDS011;69556;45.004;7.532;2023-07-20T04:37:43;22.25;;;11.88;;
80241;SDS011;69556;45.004;7.532;2023-07-20T04:40:11;21.02;;;11.82;;
80241;SDS011;69556;45.004;7.532;2023-07-20T04:42:38;23.80;;;12.45;;
80241;SDS011;69556;45.004;7.532;2023-07-20T04:45:03;24.60;;;13.10;;
80241;SDS011;69556;45.004;7.532;2023-07-20T04:47:29;20.70;;;12.90;;
80241;SDS011;69556;45.004;7.532;2023-07-20T04:49:55;17.77;;;11.52;;
80241;SDS011;69556;45.004;7.532;2023-07-20T04:52:20;26.58;;;12.73;;
80241;SDS011;69556;45.004;7.532;2023-07-20T04:54:45;20.33;;;12.30;;
80241;SDS011;69556;45.004;7.532;2023-07-20T04:57:11;27.37;;;12.43;;
80241;SDS011;69556;45.004;7.532;2023-07-20T04:59:38;21.73;;;12.30;;
80241;SDS011;69556;45.004;7.532;2023-07-20T05:02:03;24.87;;;11.87;;
80241;SDS011;69556;45.004;7.532;2023-07-20T05:04:28;23.80;;;12.15;;
80241;SDS011;69556;45.004;7.532;2023-07-20T05:06:54;20.07;;;12.17;;
80241;SDS011;69556;45.004;7.532;2023-07-20T05:09:19;27.03;;;12.97;;
80241;SDS011;69556;45.004;7.532;2023-07-20T05:11:44;24.47;;;12.73;;
80241;SDS011;69556;45.004;7.532;2023-07-20T05:16:37;21.63;;;11.30;;
80241;SDS011;69556;45.004;7.532;2023-07-20T05:19:03;19.38;;;11.45;;
80241;SDS011;69556;45.004;7.532;2023-07-20T05:21:28;22.30;;;12.40;;
80241;SDS011;69556;45.004;7.532;2023-07-20T05:23:53;24.42;;;12.40;;
80241;SDS011;69556;45.004;7.532;2023-07-20T05:26:19;28.63;;;11.50;;
80241;SDS011;69556;45.004;7.532;2023-07-20T05:28:44;20.33;;;9.93;;
80241;SDS011;69556;45.004;7.532;2023-07-20T05:31:09;19.02;;;9.45;;
80241;SDS011;69556;45.004;7.532;2023-07-20T05:33:35;20.52;;;10.27;;
80241;SDS011;69556;45.004;7.532;2023-07-20T05:36:00;16.88;;;9.95;;
80241;SDS011;69556;45.004;7.532;2023-07-20T05:38:25;18.77;;;10.18;;
80241;SDS011;69556;45.004;7.532;2023-07-20T05:40:51;21.23;;;10.38;;
80241;SDS011;69556;45.004;7.532;2023-07-20T05:43:16;28.40;;;10.48;;
80241;SDS011;69556;45.004;7.532;2023-07-20T05:45:42;18.70;;;9.77;;
80241;SDS011;69556;45.004;7.532;2023-07-20T05:48:08;19.48;;;9.63;;
80241;SDS011;69556;45.004;7.532;2023-07-20T05:50:36;16.55;;;8.73;;
80241;SDS011;69556;45.004;7.532;2023-07-20T05:53:02;17.50;;;8.85;;
80241;SDS011;69556;45.004;7.532;2023-07-20T05:55:27;11.57;;;7.37;;
80241;SDS011;69556;45.004;7.532;2023-07-20T05:57:52;24.40;;;8.03;;
80241;SDS011;69556;45.004;7.532;2023-07-20T06:00:19;20.17;;;7.63;;
80241;SDS011;69556;45.004;7.532;2023-07-20T06:02:51;15.35;;;7.97;;
80241;SDS011;69556;45.004;7.532;2023-07-20T06:05:18;21.10;;;8.00;;
80241;SDS011;69556;45.004;7.532;2023-07-20T06:07:44;15.13;;;9.23;;
80241;SDS011;69556;45.004;7.532;2023-07-20T06:10:09;16.97;;;8.30;;
80241;SDS011;69556;45.004;7.532;2023-07-20T06:12:34;17.60;;;9.30;;
80241;SDS011;69556;45.004;7.532;2023-07-20T06:15:03;16.43;;;9.07;;
80241;SDS011;69556;45.004;7.532;2023-07-20T06:17:30;17.05;;;8.98;;
80241;SDS011;69556;45.004;7.532;2023-07-20T06:19:55;25.05;;;8.98;;
80241;SDS011;69556;45.004;7.532;2023-07-20T06:22:20;18.95;;;8.48;;
80241;SDS011;69556;45.004;7.532;2023-07-20T06:24:46;18.93;;;8.37;;
80241;SDS011;69556;45.004;7.532;2023-07-20T06:27:11;15.37;;;7.73;;
80241;SDS011;69556;45.004;7.532;2023-07-20T06:29:37;19.58;;;8.32;;
80241;SDS011;69556;45.004;7.532;2023-07-20T06:32:03;13.52;;;8.85;;
80241;SDS011;69556;45.004;7.532;2023-07-20T06:34:28;14.23;;;8.02;;
80241;SDS011;69556;45.004;7.532;2023-07-20T06:36:54;18.38;;;8.80;;
80241;SDS011;69556;45.004;7.532;2023-07-20T06:39:20;21.42;;;9.32;;
80241;SDS011;69556;45.004;7.532;2023-07-20T06:41:46;21.52;;;8.85;;
80241;SDS011;69556;45.004;7.532;2023-07-20T06:44:11;17.67;;;9.53;;
80241;SDS011;69556;45.004;7.532;2023-07-20T06:46:37;28.77;;;10.05;;
80241;SDS011;69556;45.004;7.532;2023-07-20T06:49:05;22.52;;;9.63;;
80241;SDS011;69556;45.004;7.532;2023-07-20T06:51:31;20.50;;;10.07;;
80241;SDS011;69556;45.004;7.532;2023-07-20T06:53:56;21.60;;;9.40;;
80241;SDS011;69556;45.004;7.532;2023-07-20T06:56:22;18.95;;;9.40;;
80241;SDS011;69556;45.004;7.532;2023-07-20T06:58:47;17.73;;;10.10;;
80241;SDS011;69556;45.004;7.532;2023-07-20T07:01:13;21.00;;;10.07;;
80241;SDS011;69556;45.004;7.532;2023-07-20T07:03:38;19.10;;;9.88;;
80241;SDS011;69556;45.004;7.532;2023-07-20T07:06:04;20.67;;;11.07;;
80241;SDS011;69556;45.004;7.532;2023-07-20T07:08:29;24.13;;;10.65;;
80241;SDS011;69556;45.004;7.532;2023-07-20T07:10:54;15.50;;;10.13;;
80241;SDS011;69556;45.004;7.532;2023-07-20T07:13:20;20.08;;;10.98;;
80241;SDS011;69556;45.004;7.532;2023-07-20T07:15:45;19.95;;;10.95;;
80241;SDS011;69556;45.004;7.532;2023-07-20T07:18:11;20.83;;;10.35;;
80241;SDS011;69556;45.004;7.532;2023-07-20T07:20:36;24.00;;;10.65;;
80241;SDS011;69556;45.004;7.532;2023-07-20T07:23:02;19.03;;;10.43;;
80241;SDS011;69556;45.004;7.532;2023-07-20T07:25:27;28.23;;;11.13;;
80241;SDS011;69556;45.004;7.532;2023-07-20T07:27:53;19.75;;;10.82;;
80241;SDS011;69556;45.004;7.532;2023-07-20T07:30:20;26.27;;;9.98;;
80241;SDS011;69556;45.004;7.532;2023-07-20T07:32:45;27.70;;;10.98;;
80241;SDS011;69556;45.004;7.532;2023-07-20T07:35:11;20.48;;;10.13;;
80241;SDS011;69556;45.004;7.532;2023-07-20T07:37:37;19.45;;;10.82;;
80241;SDS011;69556;45.004;7.532;2023-07-20T07:40:02;22.73;;;11.80;;
80241;SDS011;69556;45.004;7.532;2023-07-20T07:42:29;24.30;;;11.23;;
80241;SDS011;69556;45.004;7.532;2023-07-20T07:44:54;19.23;;;9.75;;
80241;SDS011;69556;45.004;7.532;2023-07-20T07:47:20;21.13;;;10.48;;
80241;SDS011;69556;45.004;7.532;2023-07-20T07:49:45;23.55;;;12.32;;
80241;SDS011;69556;45.004;7.532;2023-07-20T07:52:10;25.53;;;11.73;;
80241;SDS011;69556;45.004;7.532;2023-07-20T07:54:36;22.37;;;11.63;;
80241;SDS011;69556;45.004;7.532;2023-07-20T07:57:01;19.77;;;10.47;;
80241;SDS011;69556;45.004;7.532;2023-07-20T07:59:26;25.97;;;11.80;;
80241;SDS011;69556;45.004;7.532;2023-07-20T08:01:52;23.23;;;10.97;;
80241;SDS011;69556;45.004;7.532;2023-07-20T08:04:17;25.23;;;11.02;;
80241;SDS011;69556;45.004;7.532;2023-07-20T08:06:43;21.63;;;11.00;;
80241;SDS011;69556;45.004;7.532;2023-07-20T08:09:09;27.40;;;11.18;;
80241;SDS011;69556;45.004;7.532;2023-07-20T08:11:34;22.97;;;11.57;;
80241;SDS011;69556;45.004;7.532;2023-07-20T08:14:00;22.67;;;11.67;;
80241;SDS011;69556;45.004;7.532;2023-07-20T08:16:25;24.67;;;10.32;;
80241;SDS011;69556;45.004;7.532;2023-07-20T08:18:51;21.35;;;10.77;;
80241;SDS011;69556;45.004;7.532;2023-07-20T08:21:17;24.55;;;10.27;;
80241;SDS011;69556;45.004;7.532;2023-07-20T08:23:42;21.35;;;10.57;;
80241;SDS011;69556;45.004;7.532;2023-07-20T08:26:08;18.63;;;10.60;;
80241;SDS011;69556;45.004;7.532;2023-07-20T08:28:33;27.13;;;11.88;;
80241;SDS011;69556;45.004;7.532;2023-07-20T08:30:59;20.67;;;9.77;;
80241;SDS011;69556;45.004;7.532;2023-07-20T08:33:24;17.77;;;9.70;;
80241;SDS011;69556;45.004;7.532;2023-07-20T08:35:49;19.98;;;10.25;;
80241;SDS011;69556;45.004;7.532;2023-07-20T08:38:15;24.20;;;11.07;;
80241;SDS011;69556;45.004;7.532;2023-07-20T08:40:44;18.52;;;10.48;;
80241;SDS011;69556;45.004;7.532;2023-07-20T08:43:11;17.17;;;9.52;;
80241;SDS011;69556;45.004;7.532;2023-07-20T08:45:40;15.90;;;9.98;;
80241;SDS011;69556;45.004;7.532;2023-07-20T08:48:07;25.08;;;10.38;;
80241;SDS011;69556;45.004;7.532;2023-07-20T08:50:34;15.45;;;9.43;;
80241;SDS011;69556;45.004;7.532;2023-07-20T08:53:00;22.98;;;10.77;;
80241;SDS011;69556;45.004;7.532;2023-07-20T08:55:27;21.85;;;11.00;;
80241;SDS011;69556;45.004;7.532;2023-07-20T08:57:57;15.52;;;9.57;;
80241;SDS011;69556;45.004;7.532;2023-07-20T09:00:24;30.90;;;9.77;;
80241;SDS011;69556;45.004;7.532;2023-07-20T09:02:52;17.65;;;8.25;;
80241;SDS011;69556;45.004;7.532;2023-07-20T09:05:22;18.33;;;8.50;;
80241;SDS011;69556;45.004;7.532;2023-07-20T09:07:49;23.25;;;10.10;;
80241;SDS011;69556;45.004;7.532;2023-07-20T09:10:15;20.85;;;9.13;;
80241;SDS011;69556;45.004;7.532;2023-07-20T09:12:42;17.03;;;9.90;;
80241;SDS011;69556;45.004;7.532;2023-07-20T09:15:09;18.13;;;8.30;;
80241;SDS011;69556;45.004;7.532;2023-07-20T09:17:35;18.48;;;9.52;;
80241;SDS011;69556;45.004;7.532;2023-07-20T09:20:06;21.98;;;9.18;;
80241;SDS011;69556;45.004;7.532;2023-07-20T09:22:35;17.63;;;8.45;;
80241;SDS011;69556;45.004;7.532;2023-07-20T09:25:05;21.20;;;10.10;;
80241;SDS011;69556;45.004;7.532;2023-07-20T09:27:36;18.50;;;8.98;;
80241;SDS011;69556;45.004;7.532;2023-07-20T09:30:03;20.95;;;9.95;;
80241;SDS011;69556;45.004;7.532;2023-07-20T09:32:29;24.90;;;8.73;;
80241;SDS011;69556;45.004;7.532;2023-07-20T09:34:54;18.58;;;9.32;;
80241;SDS011;69556;45.004;7.532;2023-07-20T09:37:23;13.77;;;8.13;;
80241;SDS011;69556;45.004;7.532;2023-07-20T09:39:51;27.23;;;9.77;;
80241;SDS011;69556;45.004;7.532;2023-07-20T09:42:21;14.55;;;9.05;;
80241;SDS011;69556;45.004;7.532;2023-07-20T09:44:47;14.90;;;9.40;;
80241;SDS011;69556;45.004;7.532;2023-07-20T09:47:13;23.70;;;8.70;;
80241;SDS011;69556;45.004;7.532;2023-07-20T09:49:46;20.23;;;9.07;;
80241;SDS011;69556;45.004;7.532;2023-07-20T09:52:12;21.07;;;9.73;;
80241;SDS011;69556;45.004;7.532;2023-07-20T09:54:38;28.60;;;9.55;;
80241;SDS011;69556;45.004;7.532;2023-07-20T09:57:08;14.65;;;8.25;;
80241;SDS011;69556;45.004;7.532;2023-07-20T09:59:34;16.85;;;9.15;;
80241;SDS011;69556;45.004;7.532;2023-07-20T10:02:00;23.73;;;9.23;;
80241;SDS011;69556;45.004;7.532;2023-07-20T10:04:28;20.08;;;8.98;;
80241;SDS011;69556;45.004;7.532;2023-07-20T10:06:55;19.00;;;9.13;;
80241;SDS011;69556;45.004;7.532;2023-07-20T10:09:24;18.05;;;9.25;;
80241;SDS011;69556;45.004;7.532;2023-07-20T10:11:50;13.90;;;7.60;;
80241;SDS011;69556;45.004;7.532;2023-07-20T10:16:51;19.85;;;8.52;;
80241;SDS011;69556;45.004;7.532;2023-07-20T10:19:30;19.83;;;8.65;;
80241;SDS011;69556;45.004;7.532;2023-07-20T10:22:07;20.38;;;9.52;;
80241;SDS011;69556;45.004;7.532;2023-07-20T10:24:48;12.68;;;8.02;;
80241;SDS011;69556;45.004;7.532;2023-07-20T10:27:15;19.52;;;9.02;;
80241;SDS011;69556;45.004;7.532;2023-07-20T10:29:40;20.20;;;9.47;;
80241;SDS011;69556;45.004;7.532;2023-07-20T10:32:07;20.52;;;9.30;;
80241;SDS011;69556;45.004;7.532;2023-07-20T10:34:33;13.75;;;9.25;;
80241;SDS011;69556;45.004;7.532;2023-07-20T10:36:59;30.83;;;18.50;;
80241;SDS011;69556;45.004;7.532;2023-07-20T10:39:25;25.00;;;12.50;;
80241;SDS011;69556;45.004;7.532;2023-07-20T10:42:07;28.83;;;10.38;;
80241;SDS011;69556;45.004;7.532;2023-07-20T10:44:36;18.25;;;9.45;;
80241;SDS011;69556;45.004;7.532;2023-07-20T10:47:03;16.55;;;7.90;;
80241;SDS011;69556;45.004;7.532;2023-07-20T10:49:33;16.35;;;8.85;;
80241;SDS011;69556;45.004;7.532;2023-07-20T10:52:00;18.15;;;9.27;;
80241;SDS011;69556;45.004;7.532;2023-07-20T10:56:55;20.42;;;9.52;;
80241;SDS011;69556;45.004;7.532;2023-07-20T11:01:56;13.15;;;8.60;;
80241;SDS011;69556;45.004;7.532;2023-07-20T11:04:41;24.35;;;9.50;;
80241;SDS011;69556;45.004;7.532;2023-07-20T11:07:08;20.52;;;9.00;;
80241;SDS011;69556;45.004;7.532;2023-07-20T11:09:34;19.92;;;8.40;;
80241;SDS011;69556;45.004;7.532;2023-07-20T11:12:10;19.80;;;8.30;;
80241;SDS011;69556;45.004;7.532;2023-07-20T11:14:42;17.80;;;8.65;;
80241;SDS011;69556;45.004;7.532;2023-07-20T11:17:29;21.60;;;9.00;;
80241;SDS011;69556;45.004;7.532;2023-07-20T11:19:56;13.20;;;8.75;;
80241;SDS011;69556;45.004;7.532;2023-07-20T11:22:22;14.98;;;8.45;;
80241;SDS011;69556;45.004;7.532;2023-07-20T11:24:48;14.25;;;8.13;;
80241;SDS011;69556;45.004;7.532;2023-07-20T11:27:14;16.27;;;8.60;;
80241;SDS011;69556;45.004;7.532;2023-07-20T11:29:39;18.80;;;7.88;;
80241;SDS011;69556;45.004;7.532;2023-07-20T11:32:05;13.75;;;7.20;;
80241;SDS011;69556;45.004;7.532;2023-07-20T11:34:31;12.82;;;7.85;;
80241;SDS011;69556;45.004;7.532;2023-07-20T11:36:57;19.58;;;8.07;;
80241;SDS011;69556;45.004;7.532;2023-07-20T11:39:22;16.17;;;7.40;;
80241;SDS011;69556;45.004;7.532;2023-07-20T11:41:53;13.30;;;7.50;;
80241;SDS011;69556;45.004;7.532;2023-07-20T11:44:21;12.10;;;6.60;;
80241;SDS011;69556;45.004;7.532;2023-07-20T11:47:09;15.80;;;7.10;;
80241;SDS011;69556;45.004;7.532;2023-07-20T11:49:39;14.05;;;7.38;;
80241;SDS011;69556;45.004;7.532;2023-07-20T11:52:07;16.27;;;7.38;;
80241;SDS011;69556;45.004;7.532;2023-07-20T11:57:02;12.07;;;7.28;;
80241;SDS011;69556;45.004;7.532;2023-07-20T11:59:28;18.58;;;6.72;;
80241;SDS011;69556;45.004;7.532;2023-07-20T12:01:54;14.07;;;7.88;;
80241;SDS011;69556;45.004;7.532;2023-07-20T12:04:19;17.45;;;7.72;;
80241;SDS011;69556;45.004;7.532;2023-07-20T12:06:47;14.20;;;7.32;;
80241;SDS011;69556;45.004;7.532;2023-07-20T12:09:13;11.10;;;6.20;;
80241;SDS011;69556;45.004;7.532;2023-07-20T12:11:42;11.18;;;6.68;;
80241;SDS011;69556;45.004;7.532;2023-07-20T12:14:09;11.50;;;6.32;;
80241;SDS011;69556;45.004;7.532;2023-07-20T12:16:35;14.45;;;7.43;;
80241;SDS011;69556;45.004;7.532;2023-07-20T12:19:09;19.63;;;7.07;;
80241;SDS011;69556;45.004;7.532;2023-07-20T12:21:37;14.55;;;6.82;;
80241;SDS011;69556;45.004;7.532;2023-07-20T12:24:04;14.82;;;6.43;;
80241;SDS011;69556;45.004;7.532;2023-07-20T12:26:30;13.57;;;6.78;;
80241;SDS011;69556;45.004;7.532;2023-07-20T12:28:56;13.10;;;6.13;;
80241;SDS011;69556;45.004;7.532;2023-07-20T12:31:22;14.23;;;6.95;;
80241;SDS011;69556;45.004;7.532;2023-07-20T12:36:14;10.70;;;5.78;;
80241;SDS011;69556;45.004;7.532;2023-07-20T12:38:40;15.27;;;6.07;;
80241;SDS011;69556;45.004;7.532;2023-07-20T12:41:07;11.52;;;6.18;;
80241;SDS011;69556;45.004;7.532;2023-07-20T12:43:32;14.18;;;6.72;;
80241;SDS011;69556;45.004;7.532;2023-07-20T12:45:58;13.75;;;6.65;;
80241;SDS011;69556;45.004;7.532;2023-07-20T12:48:24;13.18;;;6.28;;
80241;SDS011;69556;45.004;7.532;2023-07-20T12:50:49;12.70;;;6.20;;
80241;SDS011;69556;45.004;7.532;2023-07-20T12:53:15;13.07;;;5.80;;
80241;SDS011;69556;45.004;7.532;2023-07-20T12:55:40;7.75;;;5.05;;
80241;SDS011;69556;45.004;7.532;2023-07-20T12:58:06;13.93;;;5.97;;
80241;SDS011;69556;45.004;7.532;2023-07-20T13:00:32;10.52;;;5.55;;
80241;SDS011;69556;45.004;7.532;2023-07-20T13:02:58;8.88;;;5.65;;
80241;SDS011;69556;45.004;7.532;2023-07-20T13:05:24;12.57;;;6.00;;
80241;SDS011;69556;45.004;7.532;2023-07-20T13:07:49;11.75;;;5.95;;
80241;SDS011;69556;45.004;7.532;2023-07-20T13:10:15;12.30;;;6.15;;
80241;SDS011;69556;45.004;7.532;2023-07-20T13:12:40;10.45;;;5.50;;
80241;SDS011;69556;45.004;7.532;2023-07-20T13:15:06;12.70;;;5.55;;
80241;SDS011;69556;45.004;7.532;2023-07-20T13:17:36;11.88;;;5.90;;
80241;SDS011;69556;45.004;7.532;2023-07-20T13:20:06;14.43;;;6.28;;
80241;SDS011;69556;45.004;7.532;2023-07-20T13:22:33;11.13;;;5.70;;
80241;SDS011;69556;45.004;7.532;2023-07-20T13:24:59;13.27;;;5.72;;
80241;SDS011;69556;45.004;7.532;2023-07-20T13:27:24;9.07;;;5.47;;
80241;SDS011;69556;45.004;7.532;2023-07-20T13:29:51;11.73;;;5.72;;
80241;SDS011;69556;45.004;7.532;2023-07-20T13:32:16;13.75;;;5.35;;
80241;SDS011;69556;45.004;7.532;2023-07-20T13:34:43;12.43;;;4.97;;
80241;SDS011;69556;45.004;7.532;2023-07-20T13:37:09;9.45;;;5.50;;
80241;SDS011;69556;45.004;7.532;2023-07-20T13:39:35;10.90;;;5.47;;
80241;SDS011;69556;45.004;7.532;2023-07-20T13:42:00;11.90;;;5.73;;
80241;SDS011;69556;45.004;7.532;2023-07-20T13:44:30;13.32;;;5.60;;
80241;SDS011;69556;45.004;7.532;2023-07-20T13:46:56;14.32;;;5.88;;
80241;SDS011;69556;45.004;7.532;2023-07-20T13:49:22;13.05;;;5.80;;
80241;SDS011;69556;45.004;7.532;2023-07-20T13:51:48;10.77;;;5.97;;
80241;SDS011;69556;45.004;7.532;2023-07-20T13:54:13;13.60;;;5.78;;
80241;SDS011;69556;45.004;7.532;2023-07-20T13:56:38;9.23;;;5.00;;
80241;SDS011;69556;45.004;7.532;2023-07-20T13:59:04;12.02;;;5.50;;
80241;SDS011;69556;45.004;7.532;2023-07-20T14:01:29;11.52;;;5.30;;
80241;SDS011;69556;45.004;7.532;2023-07-20T14:06:21;12.07;;;5.67;;
80241;SDS011;69556;45.004;7.532;2023-07-20T14:08:47;9.10;;;5.25;;
80241;SDS011;69556;45.004;7.532;2023-07-20T14:11:14;11.88;;;5.72;;
80241;SDS011;69556;45.004;7.532;2023-07-20T14:13:39;13.05;;;5.85;;
80241;SDS011;69556;45.004;7.532;2023-07-20T14:16:05;11.35;;;5.75;;
80241;SDS011;69556;45.004;7.532;2023-07-20T14:18:30;10.73;;;5.50;;
80241;SDS011;69556;45.004;7.532;2023-07-20T14:20:56;11.02;;;5.88;;
80241;SDS011;69556;45.004;7.532;2023-07-20T14:23:21;11.47;;;5.80;;
80241;SDS011;69556;45.004;7.532;2023-07-20T14:25:47;11.95;;;5.25;;
80241;SDS011;69556;45.004;7.532;2023-07-20T14:28:13;10.80;;;5.70;;
80241;SDS011;69556;45.004;7.532;2023-07-20T14:30:38;9.38;;;5.22;;
80241;SDS011;69556;45.004;7.532;2023-07-20T14:33:04;13.30;;;5.37;;
80241;SDS011;69556;45.004;7.532;2023-07-20T14:35:29;11.47;;;5.50;;
80241;SDS011;69556;45.004;7.532;2023-07-20T14:37:54;16.77;;;5.10;;
80241;SDS011;69556;45.004;7.532;2023-07-20T14:40:20;11.10;;;5.27;;
80241;SDS011;69556;45.004;7.532;2023-07-20T14:42:45;13.40;;;5.53;;
80241;SDS011;69556;45.004;7.532;2023-07-20T14:45:11;10.50;;;5.60;;
80241;SDS011;69556;45.004;7.532;2023-07-20T14:47:36;9.07;;;5.73;;
80241;SDS011;69556;45.004;7.532;2023-07-20T14:50:01;11.63;;;5.90;;